createdAt,value
2018-10-16T00:00:23.711Z,1000.39
2018-10-16T00:01:23.743Z,1000.42
2018-10-16T00:02:23.760Z,1000.41
2018-10-16T00:03:23.810Z,1000.45
2018-10-16T00:04:23.789Z,1000.46
2018-10-16T00:05:23.806Z,1000.47
2018-10-16T00:06:23.824Z,1000.45
2018-10-16T00:07:23.845Z,1000.46
2018-10-16T00:08:23.866Z,1000.44
2018-10-16T00:09:23.878Z,1000.41
2018-10-16T00:10:23.900Z,1000.43
2018-10-16T00:11:23.967Z,1000.39
2018-10-16T00:12:23.935Z,1000.42
2018-10-16T00:13:23.948Z,1000.42
2018-10-16T00:14:23.966Z,1000.47
2018-10-16T00:15:23.989Z,1000.46
2018-10-16T00:16:24.042Z,1000.45
2018-10-16T00:17:24.025Z,1000.47
2018-10-16T00:18:24.045Z,1000.52
2018-10-16T00:19:24.059Z,1000.56
2018-10-16T00:20:24.080Z,1000.60
2018-10-16T00:21:24.099Z,1000.52
2018-10-16T00:22:24.131Z,1000.55
2018-10-16T00:23:24.132Z,1000.48
2018-10-16T00:24:24.144Z,1000.48
2018-10-16T00:25:24.173Z,1000.54
2018-10-16T00:26:24.187Z,1000.51
2018-10-16T00:27:24.201Z,1000.53
2018-10-16T00:28:24.220Z,1000.57
2018-10-16T00:29:24.241Z,1000.52
2018-10-16T00:30:24.255Z,1000.54
2018-10-16T00:31:24.276Z,1000.55
2018-10-16T00:32:24.355Z,1000.53
2018-10-16T00:33:24.317Z,1000.54
2018-10-16T00:34:24.338Z,1000.54
2018-10-16T00:35:24.349Z,1000.57
2018-10-16T00:36:24.371Z,1000.53
2018-10-16T00:37:24.379Z,1000.53
2018-10-16T00:38:24.396Z,1000.58
2018-10-16T00:39:24.421Z,1000.57
2018-10-16T00:40:24.434Z,1000.56
2018-10-16T00:41:24.462Z,1000.57
2018-10-16T00:42:24.475Z,1000.61
2018-10-16T00:43:24.486Z,1000.62
2018-10-16T00:44:24.509Z,1000.58
2018-10-16T00:45:24.529Z,1000.59
2018-10-16T00:46:24.549Z,1000.58
2018-10-16T00:47:24.616Z,1000.57
2018-10-16T00:48:24.578Z,1000.60
2018-10-16T00:49:24.607Z,1000.55
2018-10-16T00:50:24.622Z,1000.52
2018-10-16T00:51:24.648Z,1000.50
2018-10-16T00:52:24.650Z,1000.51
2018-10-16T00:53:24.673Z,1000.53
2018-10-16T00:54:24.690Z,1000.59
2018-10-16T00:55:24.716Z,1000.57
2018-10-16T00:56:24.728Z,1000.60
2018-10-16T00:57:24.755Z,1000.62
2018-10-16T00:58:24.768Z,1000.63
2018-10-16T00:59:24.781Z,1000.66
2018-10-16T01:00:24.803Z,1000.71
2018-10-16T01:01:24.820Z,1000.69
2018-10-16T01:02:24.829Z,1000.68
2018-10-16T01:03:24.856Z,1000.64
2018-10-16T01:04:24.869Z,1000.66
2018-10-16T01:05:24.895Z,1000.60
2018-10-16T01:06:24.915Z,1000.61
2018-10-16T01:07:24.922Z,1000.65
2018-10-16T01:08:24.944Z,1000.63
2018-10-16T01:09:24.965Z,1000.62
2018-10-16T01:10:24.983Z,1000.63
2018-10-16T01:11:24.997Z,1000.64
2018-10-16T01:12:25.040Z,1000.65
2018-10-16T01:13:25.032Z,1000.64
2018-10-16T01:14:25.047Z,1000.66
2018-10-16T01:15:25.074Z,1000.64
2018-10-16T01:16:25.098Z,1000.66
2018-10-16T01:17:25.109Z,1000.63
2018-10-16T01:18:25.130Z,1000.64
2018-10-16T01:19:25.143Z,1000.63
2018-10-16T01:20:25.158Z,1000.63
2018-10-16T01:21:25.179Z,1000.65
2018-10-16T01:22:25.208Z,1000.67
2018-10-16T01:23:25.221Z,1000.69
2018-10-16T01:24:25.233Z,1000.68
2018-10-16T01:25:25.251Z,1000.69
2018-10-16T01:26:25.277Z,1000.69
2018-10-16T01:27:25.297Z,1000.70
2018-10-16T01:28:25.310Z,1000.72
2018-10-16T01:29:25.328Z,1000.72
2018-10-16T01:30:25.345Z,1000.69
2018-10-16T01:31:25.393Z,1000.70
2018-10-16T01:32:25.381Z,1000.68
2018-10-16T01:33:25.398Z,1000.70
2018-10-16T01:34:25.426Z,1000.72
2018-10-16T01:35:25.440Z,1000.71
2018-10-16T01:36:25.450Z,1000.71
2018-10-16T01:37:25.500Z,1000.73
2018-10-16T01:38:25.492Z,1000.68
2018-10-16T01:39:25.502Z,1000.70
2018-10-16T01:40:25.556Z,1000.68
2018-10-16T01:41:25.547Z,1000.71
2018-10-16T01:42:25.561Z,1000.73
2018-10-16T01:43:25.583Z,1000.70
2018-10-16T01:44:25.598Z,1000.76
2018-10-16T01:45:25.619Z,1000.72
2018-10-16T01:46:25.637Z,1000.76
2018-10-16T01:47:25.648Z,1000.71
2018-10-16T01:48:25.670Z,1000.70
2018-10-16T01:49:25.689Z,1000.72
2018-10-16T01:50:25.718Z,1000.76
2018-10-16T01:51:25.720Z,1000.75
2018-10-16T01:52:25.739Z,1000.75
2018-10-16T01:53:25.756Z,1000.78
2018-10-16T01:54:25.779Z,1000.80
2018-10-16T01:55:25.793Z,1000.82
2018-10-16T01:56:25.898Z,1000.83
2018-10-16T01:57:25.836Z,1000.86
2018-10-16T01:58:25.855Z,1000.85
2018-10-16T01:59:25.870Z,1000.86
2018-10-16T02:00:25.901Z,1000.90
2018-10-16T02:01:25.908Z,1000.86
2018-10-16T02:02:25.969Z,1000.85
2018-10-16T02:03:25.935Z,1000.85
2018-10-16T02:04:25.958Z,1000.85
2018-10-16T02:05:25.971Z,1000.81
2018-10-16T02:06:25.991Z,1000.80
2018-10-16T02:07:26.007Z,1000.78
2018-10-16T02:08:26.087Z,1000.71
2018-10-16T02:09:26.049Z,1000.73
2018-10-16T02:10:26.072Z,1000.69
2018-10-16T02:11:26.084Z,1000.63
2018-10-16T02:12:26.101Z,1000.64
2018-10-16T02:13:26.123Z,1000.67
2018-10-16T02:14:26.139Z,1000.67
2018-10-16T02:15:26.150Z,1000.69
2018-10-16T02:16:26.173Z,1000.72
2018-10-16T02:17:26.186Z,1000.71
2018-10-16T02:18:26.212Z,1000.68
2018-10-16T02:19:26.233Z,1000.64
2018-10-16T02:20:26.245Z,1000.67
2018-10-16T02:21:26.346Z,1000.67
2018-10-16T02:22:26.282Z,1000.68
2018-10-16T02:23:26.300Z,1000.67
2018-10-16T02:24:26.314Z,1000.68
2018-10-16T02:25:26.340Z,1000.70
2018-10-16T02:26:26.360Z,1000.70
2018-10-16T02:27:26.369Z,1000.70
2018-10-16T02:28:26.394Z,1000.68
2018-10-16T02:29:26.416Z,1000.66
2018-10-16T02:30:26.427Z,1000.64
2018-10-16T02:31:26.445Z,1000.66
2018-10-16T02:32:26.463Z,1000.64
2018-10-16T02:33:26.489Z,1000.66
2018-10-16T02:34:26.503Z,1000.66
2018-10-16T02:35:26.513Z,1000.67
2018-10-16T02:36:26.535Z,1000.69
2018-10-16T02:37:26.553Z,1000.73
2018-10-16T02:38:26.568Z,1000.73
2018-10-16T02:39:26.588Z,1000.73
2018-10-16T02:40:26.695Z,1000.76
2018-10-16T02:41:26.628Z,1000.74
2018-10-16T02:42:26.648Z,1000.75
2018-10-16T02:43:26.665Z,1000.78
2018-10-16T02:44:26.682Z,1000.79
2018-10-16T02:45:26.700Z,1000.79
2018-10-16T02:46:26.719Z,1000.80
2018-10-16T02:47:26.732Z,1000.79
2018-10-16T02:48:26.761Z,1000.79
2018-10-16T02:49:26.775Z,1000.79
2018-10-16T02:50:26.798Z,1000.78
2018-10-16T02:51:26.811Z,1000.79
2018-10-16T02:52:26.830Z,1000.85
2018-10-16T02:53:26.849Z,1000.86
2018-10-16T02:54:26.878Z,1000.85
2018-10-16T02:55:26.890Z,1000.84
2018-10-16T02:56:26.900Z,1000.85
2018-10-16T02:57:26.919Z,1000.85
2018-10-16T02:58:26.941Z,1000.83
2018-10-16T02:59:26.951Z,1000.84
2018-10-16T03:00:26.977Z,1000.85
2018-10-16T03:01:26.987Z,1000.83
2018-10-16T03:02:27.013Z,1000.81
2018-10-16T03:03:27.022Z,1000.84
2018-10-16T03:04:27.039Z,1000.85
2018-10-16T03:05:27.069Z,1000.85
2018-10-16T03:06:27.084Z,1000.91
2018-10-16T03:07:27.107Z,1000.92
2018-10-16T03:08:27.116Z,1000.90
2018-10-16T03:09:27.132Z,1000.88
2018-10-16T03:10:27.160Z,1000.92
2018-10-16T03:11:27.242Z,1000.89
2018-10-16T03:12:27.184Z,1000.94
2018-10-16T03:13:27.201Z,1000.91
2018-10-16T03:14:27.229Z,1000.96
2018-10-16T03:15:27.240Z,1000.95
2018-10-16T03:16:27.254Z,1000.97
2018-10-16T03:17:27.313Z,1000.94
2018-10-16T03:18:27.302Z,1000.94
2018-10-16T03:19:27.320Z,1000.96
2018-10-16T03:20:27.404Z,1000.96
2018-10-16T03:21:27.350Z,1000.99
2018-10-16T03:22:27.366Z,1001.01
2018-10-16T03:23:27.388Z,1001.00
2018-10-16T03:24:27.412Z,1001.04
2018-10-16T03:25:27.423Z,1001.05
2018-10-16T03:26:27.438Z,1001.07
2018-10-16T03:27:27.457Z,1001.08
2018-10-16T03:28:27.480Z,1001.11
2018-10-16T03:29:27.502Z,1001.12
2018-10-16T03:30:27.513Z,1001.12
2018-10-16T03:31:27.534Z,1001.10
2018-10-16T03:32:27.548Z,1001.09
2018-10-16T03:33:27.574Z,1001.10
2018-10-16T03:34:27.591Z,1001.10
2018-10-16T03:35:27.623Z,1001.13
2018-10-16T03:36:27.628Z,1001.13
2018-10-16T03:37:27.651Z,1001.13
2018-10-16T03:38:27.662Z,1001.14
2018-10-16T03:39:27.678Z,1001.13
2018-10-16T03:40:27.691Z,1001.15
2018-10-16T03:41:27.719Z,1001.15
2018-10-16T03:42:27.736Z,1001.15
2018-10-16T03:43:27.755Z,1001.20
2018-10-16T03:44:27.771Z,1001.23
2018-10-16T03:45:27.787Z,1001.27
2018-10-16T03:46:27.804Z,1001.32
2018-10-16T03:47:27.885Z,1001.33
2018-10-16T03:48:27.840Z,1001.28
2018-10-16T03:49:27.856Z,1001.28
2018-10-16T03:50:27.882Z,1001.25
2018-10-16T03:51:27.896Z,1001.30
2018-10-16T03:52:27.912Z,1001.28
2018-10-16T03:53:27.931Z,1001.31
2018-10-16T03:54:27.966Z,1001.29
2018-10-16T03:55:27.972Z,1001.31
2018-10-16T03:56:27.995Z,1001.36
2018-10-16T03:57:28.070Z,1001.35
2018-10-16T03:58:28.024Z,1001.40
2018-10-16T03:59:28.046Z,1001.43
2018-10-16T04:00:28.060Z,1001.43
2018-10-16T04:01:28.076Z,1001.47
2018-10-16T04:02:28.088Z,1001.47
2018-10-16T04:03:28.111Z,1001.48
2018-10-16T04:04:28.130Z,1001.51
2018-10-16T04:05:28.159Z,1001.51
2018-10-16T04:06:28.186Z,1001.50
2018-10-16T04:07:28.185Z,1001.52
2018-10-16T04:08:28.210Z,1001.52
2018-10-16T04:09:28.222Z,1001.52
2018-10-16T04:10:28.235Z,1001.56
2018-10-16T04:11:28.259Z,1001.55
2018-10-16T04:12:28.282Z,1001.54
2018-10-16T04:13:28.370Z,1001.54
2018-10-16T04:14:28.317Z,1001.56
2018-10-16T04:15:28.338Z,1001.56
2018-10-16T04:16:28.351Z,1001.56
2018-10-16T04:17:28.368Z,1001.55
2018-10-16T04:18:28.391Z,1001.60
2018-10-16T04:19:28.413Z,1001.59
2018-10-16T04:20:28.419Z,1001.58
2018-10-16T04:21:28.438Z,1001.58
2018-10-16T04:22:28.514Z,1001.67
2018-10-16T04:23:28.487Z,1001.66
2018-10-16T04:24:28.501Z,1001.64
2018-10-16T04:25:28.517Z,1001.66
2018-10-16T04:26:28.530Z,1001.66
2018-10-16T04:27:28.577Z,1001.67
2018-10-16T04:28:28.567Z,1001.70
2018-10-16T04:29:28.590Z,1001.66
2018-10-16T04:30:28.606Z,1001.66
2018-10-16T04:31:28.622Z,1001.66
2018-10-16T04:32:28.716Z,1001.66
2018-10-16T04:33:28.671Z,1001.72
2018-10-16T04:34:28.675Z,1001.73
2018-10-16T04:35:28.697Z,1001.73
2018-10-16T04:36:28.714Z,1001.73
2018-10-16T04:37:28.721Z,1001.78
2018-10-16T04:38:28.794Z,1001.79
2018-10-16T04:39:28.765Z,1001.81
2018-10-16T04:40:28.842Z,1001.78
2018-10-16T04:41:28.830Z,1001.78
2018-10-16T04:42:28.825Z,1001.78
2018-10-16T04:43:28.839Z,1001.80
2018-10-16T04:44:28.883Z,1001.83
2018-10-16T04:45:28.876Z,1001.86
2018-10-16T04:46:28.893Z,1001.93
2018-10-16T04:47:28.902Z,1001.93
2018-10-16T04:48:28.928Z,1001.96
2018-10-16T04:49:28.937Z,1001.96
2018-10-16T04:50:28.965Z,1001.95
2018-10-16T04:51:28.976Z,1002.01
2018-10-16T04:52:29.000Z,1002.00
2018-10-16T04:53:29.016Z,1001.97
2018-10-16T04:54:29.029Z,1001.99
2018-10-16T04:55:29.056Z,1002.01
2018-10-16T04:56:29.070Z,1001.99
2018-10-16T04:57:29.084Z,1002.03
2018-10-16T04:58:29.102Z,1002.03
2018-10-16T04:59:29.128Z,1002.01
2018-10-16T05:00:29.146Z,1002.03
2018-10-16T05:01:29.157Z,1002.04
2018-10-16T05:02:29.176Z,1002.07
2018-10-16T05:03:29.275Z,1002.08
2018-10-16T05:04:29.214Z,1002.09
2018-10-16T05:05:29.237Z,1002.09
2018-10-16T05:06:29.251Z,1002.11
2018-10-16T05:07:29.276Z,1002.10
2018-10-16T05:08:29.288Z,1002.10
2018-10-16T05:09:29.336Z,1002.11
2018-10-16T05:10:29.328Z,1002.13
2018-10-16T05:11:29.337Z,1002.16
2018-10-16T05:12:29.363Z,1002.17
2018-10-16T05:13:29.380Z,1002.18
2018-10-16T05:14:29.393Z,1002.16
2018-10-16T05:15:29.516Z,1002.18
2018-10-16T05:16:29.438Z,1002.16
2018-10-16T05:17:29.456Z,1002.19
2018-10-16T05:18:29.468Z,1002.17
2018-10-16T05:19:29.489Z,1002.16
2018-10-16T05:20:29.512Z,1002.20
2018-10-16T05:21:29.554Z,1002.22
2018-10-16T05:22:29.544Z,1002.17
2018-10-16T05:23:29.553Z,1002.17
2018-10-16T05:24:29.576Z,1002.19
2018-10-16T05:25:29.590Z,1002.20
2018-10-16T05:26:29.635Z,1002.17
2018-10-16T05:27:29.653Z,1002.20
2018-10-16T05:28:29.643Z,1002.20
2018-10-16T05:29:29.667Z,1002.19
2018-10-16T05:30:29.687Z,1002.19
2018-10-16T05:31:29.846Z,1002.20
2018-10-16T05:32:29.717Z,1002.16
2018-10-16T05:33:29.751Z,1002.19
2018-10-16T05:34:29.757Z,1002.22
2018-10-16T05:35:29.773Z,1002.22
2018-10-16T05:36:29.800Z,1002.25
2018-10-16T05:37:29.816Z,1002.24
2018-10-16T05:38:29.829Z,1002.26
2018-10-16T05:39:29.848Z,1002.25
2018-10-16T05:40:29.861Z,1002.27
2018-10-16T05:41:29.888Z,1002.26
2018-10-16T05:42:29.902Z,1002.27
2018-10-16T05:43:29.919Z,1002.29
2018-10-16T05:44:29.939Z,1002.26
2018-10-16T05:45:29.962Z,1002.25
2018-10-16T05:46:29.969Z,1002.26
2018-10-16T05:47:29.989Z,1002.30
2018-10-16T05:48:30.019Z,1002.29
2018-10-16T05:49:30.028Z,1002.29
2018-10-16T05:50:30.045Z,1002.32
2018-10-16T05:51:30.065Z,1002.31
2018-10-16T05:52:30.101Z,1002.33
2018-10-16T05:53:30.101Z,1002.33
2018-10-16T05:54:30.194Z,1002.33
2018-10-16T05:55:30.136Z,1002.36
2018-10-16T05:56:30.152Z,1002.38
2018-10-16T05:57:30.175Z,1002.39
2018-10-16T05:58:30.257Z,1002.40
2018-10-16T05:59:30.204Z,1002.40
2018-10-16T06:00:30.233Z,1002.42
2018-10-16T06:01:30.246Z,1002.42
2018-10-16T06:02:30.266Z,1002.47
2018-10-16T06:03:30.281Z,1002.47
2018-10-16T06:04:30.294Z,1002.50
2018-10-16T06:05:30.385Z,1002.49
2018-10-16T06:06:30.335Z,1002.53
2018-10-16T06:07:30.360Z,1002.52
2018-10-16T06:08:30.379Z,1002.58
2018-10-16T06:09:30.395Z,1002.57
2018-10-16T06:10:30.411Z,1002.58
2018-10-16T06:11:30.484Z,1002.55
2018-10-16T06:12:30.447Z,1002.57
2018-10-16T06:13:30.463Z,1002.57
2018-10-16T06:14:30.486Z,1002.61
2018-10-16T06:15:30.504Z,1002.58
2018-10-16T06:16:30.522Z,1002.56
2018-10-16T06:17:30.534Z,1002.57
2018-10-16T06:18:30.562Z,1002.64
2018-10-16T06:19:30.571Z,1002.63
2018-10-16T06:20:30.601Z,1002.66
2018-10-16T06:21:30.610Z,1002.71
2018-10-16T06:22:30.628Z,1002.73
2018-10-16T06:23:30.650Z,1002.71
2018-10-16T06:24:30.703Z,1002.74
2018-10-16T06:25:30.681Z,1002.74
2018-10-16T06:26:30.828Z,1002.75
2018-10-16T06:27:30.771Z,1002.78
2018-10-16T06:28:30.734Z,1002.80
2018-10-16T06:29:30.744Z,1002.82
2018-10-16T06:30:30.849Z,1002.80
2018-10-16T06:31:30.788Z,1002.83
2018-10-16T06:32:30.801Z,1002.85
2018-10-16T06:33:30.836Z,1002.88
2018-10-16T06:34:30.842Z,1002.91
2018-10-16T06:35:30.857Z,1002.89
2018-10-16T06:36:30.887Z,1002.90
2018-10-16T06:37:30.902Z,1002.90
2018-10-16T06:38:30.914Z,1002.91
2018-10-16T06:39:30.940Z,1002.92
2018-10-16T06:40:31.052Z,1002.90
2018-10-16T06:41:30.995Z,1002.88
2018-10-16T06:42:31.038Z,1002.90
2018-10-16T06:43:31.000Z,1002.92
2018-10-16T06:44:31.027Z,1002.90
2018-10-16T06:45:31.037Z,1002.93
2018-10-16T06:46:31.093Z,1002.93
2018-10-16T06:47:31.160Z,1002.94
2018-10-16T06:48:31.323Z,1002.94
2018-10-16T06:49:31.118Z,1002.93
2018-10-16T06:50:31.133Z,1002.94
2018-10-16T06:51:31.159Z,1002.93
2018-10-16T06:52:31.175Z,1002.94
2018-10-16T06:53:31.185Z,1002.97
2018-10-16T06:54:31.261Z,1002.97
2018-10-16T06:55:31.300Z,1003.01
2018-10-16T06:56:31.243Z,1003.06
2018-10-16T06:57:31.263Z,1003.09
2018-10-16T06:58:31.279Z,1003.14
2018-10-16T06:59:31.287Z,1003.18
2018-10-16T07:00:31.319Z,1003.18
2018-10-16T07:01:31.336Z,1003.19
2018-10-16T07:02:31.344Z,1003.23
2018-10-16T07:03:31.376Z,1003.25
2018-10-16T07:04:31.387Z,1003.27
2018-10-16T07:05:31.401Z,1003.30
2018-10-16T07:06:31.445Z,1003.33
2018-10-16T07:07:31.441Z,1003.33
2018-10-16T07:08:31.459Z,1003.37
2018-10-16T07:09:31.491Z,1003.41
2018-10-16T07:10:31.493Z,1003.39
2018-10-16T07:11:31.515Z,1003.38
2018-10-16T07:12:31.535Z,1003.42
2018-10-16T07:13:31.560Z,1003.43
2018-10-16T07:14:31.636Z,1003.41
2018-10-16T07:15:31.588Z,1003.46
2018-10-16T07:16:31.604Z,1003.48
2018-10-16T07:17:31.625Z,1003.47
2018-10-16T07:18:31.648Z,1003.50
2018-10-16T07:19:31.664Z,1003.50
2018-10-16T07:20:31.685Z,1003.55
2018-10-16T07:21:31.727Z,1003.56
2018-10-16T07:22:31.719Z,1003.54
2018-10-16T07:23:31.810Z,1003.61
2018-10-16T07:24:31.745Z,1003.63
2018-10-16T07:25:31.773Z,1003.65
2018-10-16T07:26:31.800Z,1003.67
2018-10-16T07:27:31.814Z,1003.70
2018-10-16T07:28:31.824Z,1003.73
2018-10-16T07:29:31.848Z,1003.73
2018-10-16T07:30:31.854Z,1003.75
2018-10-16T07:31:31.879Z,1003.80
2018-10-16T07:32:31.956Z,1003.81
2018-10-16T07:33:31.910Z,1003.80
2018-10-16T07:34:31.932Z,1003.86
2018-10-16T07:35:31.954Z,1003.88
2018-10-16T07:36:31.972Z,1003.89
2018-10-16T07:37:31.989Z,1003.90
2018-10-16T07:38:32.146Z,1003.92
2018-10-16T07:39:32.021Z,1003.94
2018-10-16T07:41:32.057Z,1004.01
2018-10-16T07:42:32.088Z,1003.97
2018-10-16T07:43:32.095Z,1003.96
2018-10-16T07:44:32.106Z,1004.00
2018-10-16T07:45:32.128Z,1004.03
2018-10-16T07:46:32.163Z,1004.06
2018-10-16T07:47:32.173Z,1004.08
2018-10-16T07:48:32.283Z,1004.11
2018-10-16T07:49:32.201Z,1004.10
2018-10-16T07:50:32.238Z,1004.13
2018-10-16T07:51:32.242Z,1004.13
2018-10-16T07:52:32.269Z,1004.19
2018-10-16T07:53:32.274Z,1004.21
2018-10-16T07:54:32.303Z,1004.25
2018-10-16T07:55:32.319Z,1004.26
2018-10-16T07:56:32.357Z,1004.33
2018-10-16T07:57:32.352Z,1004.31
2018-10-16T07:58:32.365Z,1004.33
2018-10-16T07:59:32.379Z,1004.41
2018-10-16T08:00:32.409Z,1004.43
2018-10-16T08:01:32.418Z,1004.42
2018-10-16T08:02:32.448Z,1004.44
2018-10-16T08:03:32.456Z,1004.44
2018-10-16T08:04:32.475Z,1004.42
2018-10-16T08:05:32.494Z,1004.48
2018-10-16T08:06:32.505Z,1004.47
2018-10-16T08:07:32.531Z,1004.47
2018-10-16T08:08:32.544Z,1004.47
2018-10-16T08:09:32.569Z,1004.50
2018-10-16T08:10:32.588Z,1004.53
2018-10-16T08:11:32.734Z,1004.57
2018-10-16T08:12:32.623Z,1004.57
2018-10-16T08:13:32.635Z,1004.59
2018-10-16T08:14:32.659Z,1004.58
2018-10-16T08:15:32.747Z,1004.59
2018-10-16T08:16:32.703Z,1004.62
2018-10-16T08:17:32.709Z,1004.67
2018-10-16T08:18:32.725Z,1004.64
2018-10-16T08:19:32.742Z,1004.66
2018-10-16T08:20:32.769Z,1004.69
2018-10-16T08:21:32.853Z,1004.72
2018-10-16T08:22:32.808Z,1004.74
2018-10-16T08:23:32.819Z,1004.75
2018-10-16T08:24:32.846Z,1004.73
2018-10-16T08:25:32.862Z,1004.74
2018-10-16T08:26:32.877Z,1004.76
2018-10-16T08:27:32.969Z,1004.77
2018-10-16T08:28:32.908Z,1004.78
2018-10-16T08:29:32.928Z,1004.78
2018-10-16T08:30:33.027Z,1004.77
2018-10-16T08:31:32.963Z,1004.77
2018-10-16T08:32:32.980Z,1004.78
2018-10-16T08:33:33.019Z,1004.85
2018-10-16T08:34:33.010Z,1004.81
2018-10-16T08:35:33.029Z,1004.81
2018-10-16T08:36:33.123Z,1004.80
2018-10-16T08:37:33.073Z,1004.84
2018-10-16T08:38:33.090Z,1004.83
2018-10-16T08:39:33.110Z,1004.84
2018-10-16T08:40:33.131Z,1004.78
2018-10-16T08:41:33.148Z,1004.83
2018-10-16T08:42:33.162Z,1004.80
2018-10-16T08:43:33.182Z,1004.86
2018-10-16T08:44:33.195Z,1004.85
2018-10-16T08:45:33.298Z,1004.86
2018-10-16T08:46:33.232Z,1004.86
2018-10-16T08:47:33.403Z,1004.90
2018-10-16T08:48:33.267Z,1004.89
2018-10-16T08:49:33.291Z,1004.89
2018-10-16T08:50:33.313Z,1004.88
2018-10-16T08:51:33.325Z,1004.90
2018-10-16T08:52:33.347Z,1004.86
2018-10-16T08:53:33.356Z,1004.94
2018-10-16T08:54:33.380Z,1004.91
2018-10-16T08:55:33.400Z,1004.96
2018-10-16T08:56:33.418Z,1005.00
2018-10-16T08:57:33.438Z,1005.00
2018-10-16T08:58:33.450Z,1005.04
2018-10-16T08:59:33.470Z,1005.04
2018-10-16T09:00:33.486Z,1005.06
2018-10-16T09:01:33.504Z,1005.07
2018-10-16T09:02:33.528Z,1005.05
2018-10-16T09:03:33.553Z,1005.13
2018-10-16T09:04:33.561Z,1005.15
2018-10-16T09:05:33.582Z,1005.15
2018-10-16T09:06:33.647Z,1005.17
2018-10-16T09:07:33.642Z,1005.18
2018-10-16T09:08:33.641Z,1005.17
2018-10-16T09:09:33.654Z,1005.19
2018-10-16T09:10:33.681Z,1005.22
2018-10-16T09:11:33.690Z,1005.19
2018-10-16T09:12:33.705Z,1005.18
2018-10-16T09:13:33.731Z,1005.16
2018-10-16T09:14:33.821Z,1005.14
2018-10-16T09:15:33.773Z,1005.17
2018-10-16T09:16:33.783Z,1005.22
2018-10-16T09:17:33.804Z,1005.28
2018-10-16T09:18:33.821Z,1005.26
2018-10-16T09:19:33.843Z,1005.24
2018-10-16T09:20:33.863Z,1005.29
2018-10-16T09:21:33.880Z,1005.26
2018-10-16T09:22:33.897Z,1005.26
2018-10-16T09:23:33.914Z,1005.30
2018-10-16T09:24:33.945Z,1005.32
2018-10-16T09:25:33.948Z,1005.32
2018-10-16T09:26:33.969Z,1005.35
2018-10-16T09:27:33.988Z,1005.36
2018-10-16T09:28:34.008Z,1005.41
2018-10-16T09:29:34.020Z,1005.45
2018-10-16T09:30:34.048Z,1005.41
2018-10-16T09:31:34.064Z,1005.43
2018-10-16T09:32:34.090Z,1005.39
2018-10-16T09:33:34.115Z,1005.39
2018-10-16T09:34:34.127Z,1005.45
2018-10-16T09:35:34.143Z,1005.40
2018-10-16T09:36:34.161Z,1005.42
2018-10-16T09:37:34.237Z,1005.44
2018-10-16T09:38:34.205Z,1005.46
2018-10-16T09:39:34.220Z,1005.48
2018-10-16T09:40:34.242Z,1005.48
2018-10-16T09:41:34.267Z,1005.50
2018-10-16T09:42:34.277Z,1005.45
2018-10-16T09:43:34.309Z,1005.48
2018-10-16T09:44:34.328Z,1005.52
2018-10-16T09:45:34.342Z,1005.54
2018-10-16T09:46:34.362Z,1005.51
2018-10-16T09:47:34.379Z,1005.50
2018-10-16T09:48:34.407Z,1005.49
2018-10-16T09:49:34.516Z,1005.52
2018-10-16T09:50:34.448Z,1005.56
2018-10-16T09:51:34.467Z,1005.55
2018-10-16T09:52:34.496Z,1005.55
2018-10-16T09:53:34.506Z,1005.55
2018-10-16T09:54:34.535Z,1005.56
2018-10-16T09:55:34.559Z,1005.59
2018-10-16T09:56:34.578Z,1005.62
2018-10-16T09:57:34.589Z,1005.62
2018-10-16T09:58:34.611Z,1005.65
2018-10-16T09:59:34.632Z,1005.66
2018-10-16T10:00:34.665Z,1005.66
2018-10-16T10:01:34.679Z,1005.64
2018-10-16T10:02:34.735Z,1005.59
2018-10-16T10:03:34.716Z,1005.62
2018-10-16T10:04:34.735Z,1005.65
2018-10-16T10:05:34.763Z,1005.69
2018-10-16T10:06:34.779Z,1005.69
2018-10-16T10:07:34.823Z,1005.67
2018-10-16T10:08:34.870Z,1005.71
2018-10-16T10:09:34.850Z,1005.71
2018-10-16T10:10:34.863Z,1005.73
2018-10-16T10:11:34.888Z,1005.73
2018-10-16T10:12:34.916Z,1005.71
2018-10-16T10:13:34.941Z,1005.69
2018-10-16T10:14:34.951Z,1005.74
2018-10-16T10:15:34.972Z,1005.72
2018-10-16T10:16:34.997Z,1005.73
2018-10-16T10:17:35.016Z,1005.73
2018-10-16T10:18:35.051Z,1005.73
2018-10-16T10:19:35.066Z,1005.75
2018-10-16T10:20:35.085Z,1005.70
2018-10-16T10:21:35.104Z,1005.71
2018-10-16T10:22:35.132Z,1005.72
2018-10-16T10:23:35.172Z,1005.75
2018-10-16T10:24:35.173Z,1005.72
2018-10-16T10:25:35.189Z,1005.80
2018-10-16T10:26:35.215Z,1005.77
2018-10-16T10:27:35.237Z,1005.74
2018-10-16T10:28:35.256Z,1005.77
2018-10-16T10:29:35.298Z,1005.80
2018-10-16T10:30:35.358Z,1005.75
2018-10-16T10:31:35.320Z,1005.77
2018-10-16T10:32:35.344Z,1005.81
2018-10-16T10:33:35.362Z,1005.76
2018-10-16T10:34:35.388Z,1005.79
2018-10-16T10:35:35.439Z,1005.80
2018-10-16T10:36:35.431Z,1005.83
2018-10-16T10:37:35.453Z,1005.83
2018-10-16T10:38:35.469Z,1005.79
2018-10-16T10:39:35.499Z,1005.78
2018-10-16T10:40:35.515Z,1005.77
2018-10-16T10:41:35.532Z,1005.80
2018-10-16T10:42:35.557Z,1005.78
2018-10-16T10:43:35.580Z,1005.78
2018-10-16T10:44:35.602Z,1005.75
2018-10-16T10:45:35.670Z,1005.78
2018-10-16T10:46:35.645Z,1005.80
2018-10-16T10:47:35.659Z,1005.79
2018-10-16T10:48:35.684Z,1005.83
2018-10-16T10:49:35.709Z,1005.81
2018-10-16T10:50:36.071Z,1005.88
2018-10-16T10:51:36.122Z,1005.88
2018-10-16T10:52:35.773Z,1005.87
2018-10-16T10:53:35.801Z,1005.84
2018-10-16T10:54:35.817Z,1005.87
2018-10-16T10:55:35.838Z,1005.91
2018-10-16T10:56:35.935Z,1005.90
2018-10-16T10:57:35.882Z,1005.91
2018-10-16T10:58:35.909Z,1005.94
2018-10-16T10:59:35.921Z,1005.92
2018-10-16T11:00:35.943Z,1005.91
2018-10-16T11:01:35.960Z,1005.89
2018-10-16T11:02:35.987Z,1005.87
2018-10-16T11:04:36.031Z,1005.92
2018-10-16T11:05:36.044Z,1005.91
2018-10-16T11:06:36.074Z,1005.93
2018-10-16T11:07:36.093Z,1005.95
2018-10-16T11:08:36.116Z,1005.91
2018-10-16T11:09:36.135Z,1005.92
2018-10-16T11:10:36.157Z,1005.96
2018-10-16T11:11:36.179Z,1005.95
2018-10-16T11:12:36.235Z,1005.94
2018-10-16T11:13:36.222Z,1005.99
2018-10-16T11:14:36.237Z,1005.98
2018-10-16T11:15:36.270Z,1006.00
2018-10-16T11:16:36.285Z,1005.98
2018-10-16T11:17:36.305Z,1006.09
2018-10-16T11:18:36.351Z,1006.06
2018-10-16T11:19:36.346Z,1006.01
2018-10-16T11:20:36.375Z,1006.04
2018-10-16T11:21:36.393Z,1006.02
2018-10-16T11:22:36.417Z,1006.02
2018-10-16T11:23:36.445Z,1006.03
2018-10-16T11:24:36.475Z,1006.00
2018-10-16T11:25:36.496Z,1006.02
2018-10-16T11:26:36.506Z,1006.00
2018-10-16T11:27:36.518Z,1006.05
2018-10-16T11:28:36.547Z,1006.02
2018-10-16T11:29:36.662Z,1005.94
2018-10-16T11:30:36.597Z,1006.03
2018-10-16T11:31:36.614Z,1005.98
2018-10-16T11:32:36.628Z,1006.05
2018-10-16T11:33:36.653Z,1006.02
2018-10-16T11:34:36.675Z,1006.04
2018-10-16T11:35:36.693Z,1006.05
2018-10-16T11:36:36.718Z,1006.01
2018-10-16T11:37:36.739Z,1005.92
2018-10-16T11:38:36.759Z,1006.01
2018-10-16T11:39:36.778Z,1006.00
2018-10-16T11:40:36.800Z,1006.08
2018-10-16T11:41:36.829Z,1006.02
2018-10-16T11:42:36.849Z,1006.04
2018-10-16T11:43:36.865Z,1006.07
2018-10-16T11:44:36.883Z,1006.11
2018-10-16T11:45:36.951Z,1006.08
2018-10-16T11:46:36.931Z,1006.07
2018-10-16T11:47:36.947Z,1006.05
2018-10-16T11:48:37.047Z,1006.06
2018-10-16T11:49:36.993Z,1006.02
2018-10-16T11:50:37.013Z,1006.00
2018-10-16T11:51:37.039Z,1006.02
2018-10-16T11:52:37.066Z,1006.05
2018-10-16T11:53:37.133Z,1006.05
2018-10-16T11:54:37.098Z,1006.04
2018-10-16T11:55:37.126Z,1006.09
2018-10-16T11:56:37.140Z,1006.04
2018-10-16T11:57:37.174Z,1006.04
2018-10-16T11:58:37.181Z,1006.10
2018-10-16T11:59:37.207Z,1006.14
2018-10-16T12:00:37.234Z,1006.11
2018-10-16T12:01:37.258Z,1006.09
2018-10-16T12:02:37.319Z,1006.07
2018-10-16T12:03:37.300Z,1006.00
2018-10-16T12:04:37.319Z,1005.94
2018-10-16T12:05:37.417Z,1006.02
2018-10-16T12:06:37.360Z,1005.96
2018-10-16T12:07:37.385Z,1005.96